• Join FlightAware (Why Join?)
  • Login
  • US Flag 
Rudolph Flight #1: Arrived! 
09:27AM EST


 

Airport Tracker/Info


-or-


 

Live Flight TrackerFlight Track Log ✈ SWA303 ✈ 24-Apr-2013 ✈ KDEN - KIAD

Flight Track Log - Related Links

Times and Time Zones

All times are in EDT time to prevent confusion due to time zone crossing. See the SWA303 flight status page for this flight to view local times or setup timezone preferences in your user account.

Time Position Orientation Groundspeed Altitude Reporting Facility
EDT Latitude Longitude Course Direction KTS MPH feet Rate Location/Type
02:33PM 39.9333 -104.6667 90° East 196 226 7,200  Level Denver TRACON
02:34PM 39.9667 -104.6167 49° Northeast 258 297 9,100 2,700 Climbing Denver TRACON
02:37PM 40.0039 -104.3747 79° East 354 407 15,800 2,940 Climbing Denver Center
02:38PM 39.9753 -104.2267 104° East 388 447 18,800 2,640 Climbing Denver Center
02:39PM 39.8833 -103.6412 90° East  Level FlightAware Approximate
02:39PM 39.9486 -104.0833 104° East 411 473 21,300  Level Denver Center
02:40PM 39.9178 -103.9183 104° East 434 499 23,900 1,980 Climbing Denver Center
02:41PM 39.8922 -103.7750 103° East 452 520 25,500 1,620 Climbing Denver Center
02:42PM 39.9017 -103.5742 86° East 481 554 27,300 1,560 Climbing Denver Center
02:43PM 39.9239 -103.3900 81° East 506 582 28,800 1,380 Climbing Denver Center
02:44PM 39.9447 -103.2000 82° East 525 604 30,200 1,320 Climbing Denver Center
02:45PM 39.9656 -103.0031 82° East 542 624 31,600 1,500 Climbing Denver Center
02:46PM 39.9886 -102.8017 81° East 554 638 33,400 1,860 Climbing Denver Center
02:47PM 40.0094 -102.5864 83° East 549 632 35,500 1,680 Climbing Denver Center
02:48PM 40.0297 -102.4008 82° East 543 625 36,900 1,320 Climbing Denver Center
02:49PM 40.0514 -102.1864 82° East 535 616 38,300 960 Climbing Denver Center
02:50PM 40.0700 -102.0044 82° East 531 611 39,000 300 Climbing Denver Center
02:51PM 40.0908 -101.7931 83° East 528 608 39,000  Level Denver Center
02:52PM 40.1097 -101.6122 82° East 527 606 39,000  Level Denver Center
02:53PM 40.1258 -101.4292 83° East 531 611 39,000  Level Denver Center
02:54PM 40.1497 -101.1883 83° East 527 606 39,000  Level Denver Center
02:55PM 40.1689 -100.9772 83° East 527 606 39,000  Level Denver Center
02:56PM 40.1858 -100.7961 83° East 528 608 39,000  Level Denver Center
02:57PM 40.2044 -100.5833 83° East 531 611 39,000  Level Denver Center
02:58PM 40.2067 -100.3978 89° East 537 618 39,000  Level Denver Center
02:59PM 40.2103 -100.1811 89° East 537 618 39,000  Level Denver Center
03:01PM 40.2128 -99.9942 89° East 539 620 39,000  Level Denver Center
03:02PM 40.2153 -99.7781 89° East 540 621 39,000  Level Denver Center
03:03PM 40.2175 -99.5833 89° East 539 620 39,000  Level Denver Center
03:04PM 40.2189 -99.3892 89° East 536 617 39,000  Level Denver Center
03:05PM 40.2208 -99.1978 89° East 530 610 39,000  Level Denver Center
03:06PM 40.2222 -99.0053 89° East 531 611 39,000  Level Denver Center
03:07PM 40.2228 -98.8131 90° East 531 611 39,000  Level Denver Center
03:07PM 40.2231 -98.6969 90° East 532 612 39,000  Level Minneapolis Center
03:08PM 40.2225 -98.5036 90° East 533 613 39,000  Level Minneapolis Center
03:09PM 40.2222 -98.3114 90° East 532 612 39,000  Level Minneapolis Center
03:10PM 40.2219 -98.0792 90° East 533 613 39,000  Level Minneapolis Center
03:11PM 40.2219 -97.8856 90° East 534 615 39,000  Level Minneapolis Center
03:12PM 40.2197 -97.6917 91° East 535 616 39,000  Level Minneapolis Center
03:13PM 40.2183 -97.5000 90° East 531 611 39,000  Level Minneapolis Center
03:14PM 40.2167 -97.3189 91° East 531 611 39,000  Level Minneapolis Center
03:15PM 40.2144 -97.0878 91° East 532 612 39,000  Level Minneapolis Center
03:17PM 40.2111 -96.8983 91° East 526 605 39,000  Level Minneapolis Center
03:18PM 40.2089 -96.7067 91° East 528 608 39,000  Level Minneapolis Center
03:19PM 40.2058 -96.5178 91° East 525 604 39,000  Level Minneapolis Center
03:20PM 40.2028 -96.3261 91° East 527 606 39,000  Level Minneapolis Center
03:21PM 40.1994 -96.1364 91° East 526 605 39,000  Level Minneapolis Center
03:22PM 40.2003 -95.9042 90° East 533 613 39,000  Level Minneapolis Center
03:23PM 40.1983 -95.7092 91° East 538 619 39,000  Level Minneapolis Center
03:24PM 40.1981 -95.5164 90° East 534 615 39,000  Level Minneapolis Center
03:25PM 40.1956 -95.3247 91° East 532 612 39,000  Level Minneapolis Center
03:26PM 40.1931 -95.1331 91° East 530 610 39,000  Level Minneapolis Center
03:27PM 40.1914 -94.9400 91° East 531 611 39,000  Level Minneapolis Center
03:28PM 40.1897 -94.7469 91° East 534 615 39,000  Level Minneapolis Center
03:29PM 40.1858 -94.5436 91° East 531 611 39,000  Level Minneapolis Center
03:30PM 40.1797 -94.3400 92° East 529 609 39,000  Level Kansas City Center
03:31PM 40.1756 -94.1242 91° East 530 610 39,000  Level Kansas City Center
03:32PM 40.1683 -93.9275 93° East 539 620 39,000  Level Kansas City Center
03:33PM 40.1642 -93.7361 92° East 533 613 39,000  Level Kansas City Center
03:34PM 40.1592 -93.5442 92° East 532 612 39,000  Level Kansas City Center
03:35PM 40.1558 -93.3517 91° East 535 616 39,000  Level Kansas City Center
03:36PM 40.1508 -93.1597 92° East 537 618 39,000  Level Kansas City Center
03:37PM 40.1450 -92.9486 92° East 528 608 39,000  Level Kansas City Center
03:38PM 40.1381 -92.7344 92° East 529 609 39,000  Level Kansas City Center
03:39PM 40.1333 -92.5503 92° East 529 609 39,000  Level Kansas City Center
03:40PM 40.1122 -92.3333 97° East 531 611 39,000  Level Kansas City Center
03:41PM 40.0947 -92.1439 97° East 533 613 39,000  Level Kansas City Center
03:42PM 40.0764 -91.9550 97° East 531 611 39,000  Level Kansas City Center
03:43PM 40.0594 -91.7664 97° East 530 610 39,000  Level Kansas City Center
03:44PM 40.0403 -91.5769 97° East 530 610 39,000  Level Kansas City Center
03:45PM 40.0175 -91.3503 97° East 529 609 39,000  Level Kansas City Center
03:46PM 39.9994 -91.1614 97° East 530 610 39,000  Level Kansas City Center
03:47PM 39.9789 -90.9675 98° East 528 608 39,000  Level Kansas City Center
03:48PM 39.9592 -90.7650 97° East 528 608 39,000  Level Kansas City Center
03:50PM 39.9389 -90.5778 98° East 526 605 39,000  Level Kansas City Center
03:51PM 39.9181 -90.3900 98° East 526 605 39,000  Level Kansas City Center
03:52PM 39.8981 -90.2028 98° East 525 604 39,000  Level Kansas City Center
03:53PM 39.8772 -90.0142 98° East 529 609 39,000  Level Kansas City Center
03:54PM 39.8522 -89.7894 98° East 527 606 39,000  Level Kansas City Center
03:55PM 39.8403 -89.5992 95° East 533 613 39,000  Level Kansas City Center
03:56PM 39.8406 -89.4078 90° East 534 615 39,000  Level Kansas City Center
03:57PM 39.8414 -89.2186 90° East 530 610 39,000  Level Kansas City Center
03:58PM 39.8428 -89.0278 89° East 529 609 39,000  Level Kansas City Center
03:59PM 39.8422 -88.8353 90° East 531 611 39,000  Level Kansas City Center
04:00PM 39.8422 -88.6064 90° East 531 611 39,000  Level Kansas City Center
04:01PM 39.8425 -88.4156 90° East 529 609 39,000  Level Kansas City Center
04:02PM 39.8425 -88.2244 90° East 530 610 39,000  Level Kansas City Center
04:03PM 39.8378 -88.0472 92° East 529 609 39,000  Level Indianapolis Center
04:04PM 39.8367 -87.8533 90° East 532 612 39,000  Level Indianapolis Center
04:05PM 39.8356 -87.6586 90° East 534 615 39,000  Level Indianapolis Center
04:06PM 39.8336 -87.4644 91° East 534 615 39,000  Level Indianapolis Center
04:07PM 39.8303 -87.2708 91° East 533 613 39,000  Level Indianapolis Center
04:08PM 39.8272 -87.0769 91° East 534 615 39,000  Level Indianapolis Center
04:09PM 39.8242 -86.8514 91° East 532 612 39,000  Level Indianapolis Center
04:10PM 39.8208 -86.6578 91° East 532 612 39,000  Level Indianapolis Center
04:11PM 39.8167 -86.4650 92° East 530 610 39,000  Level Indianapolis Center
04:12PM 39.8183 -86.2758 89° East 531 611 39,000  Level Indianapolis Center
04:13PM 39.8331 -86.0667 85° East 535 616 39,000  Level Indianapolis Center
04:14PM 39.8431 -85.8731 86° East 533 613 39,000  Level Indianapolis Center
04:15PM 39.8533 -85.6806 86° East 531 611 39,000  Level Indianapolis Center
04:16PM 39.8639 -85.4889 86° East 528 608 39,000  Level Indianapolis Center
04:17PM 39.8733 -85.2975 86° East 527 606 39,000  Level Indianapolis Center
04:18PM 39.8844 -85.0728 86° East 533 613 39,000  Level Indianapolis Center
04:19PM 39.8942 -84.8786 86° East 535 616 39,000  Level Indianapolis Center
04:20PM 39.9047 -84.6797 86° East 532 612 39,000  Level Indianapolis Center
04:21PM 39.9139 -84.4856 86° East 532 612 39,000  Level Indianapolis Center
04:22PM 39.9222 -84.2919 87° East 531 611 39,000  Level Indianapolis Center
04:23PM 39.9300 -84.0981 87° East 532 612 39,000  Level Indianapolis Center
04:24PM 39.9375 -83.9042 87° East 529 609 39,000  Level Indianapolis Center
04:26PM 39.9444 -83.7092 87° East 530 610 39,000  Level Indianapolis Center
04:27PM 39.9511 -83.5131 87° East 527 606 39,000  Level Indianapolis Center
04:28PM 39.9597 -83.3172 87° East 523 602 39,000  Level Indianapolis Center
04:29PM 39.9650 -83.1250 88° East 523 602 39,000  Level Indianapolis Center
04:30PM 39.9686 -82.9336 89° East 522 601 39,000  Level Indianapolis Center
04:31PM 39.9761 -82.7125 87° East 520 598 39,000  Level Indianapolis Center
04:32PM 39.9811 -82.5222 88° East 521 600 39,000  Level Indianapolis Center
04:33PM 39.9861 -82.3294 88° East 526 605 39,000  Level Indianapolis Center
04:34PM 39.9919 -82.1364 88° East 528 608 39,000  Level Indianapolis Center
04:35PM 39.9964 -81.9444 88° East 526 605 39,000  Level Indianapolis Center
04:36PM 40.0017 -81.7522 88° East 525 604 39,000  Level Indianapolis Center
04:37PM 40.0039 -81.5608 89° East 524 603 39,000  Level Indianapolis Center
04:38PM 40.0092 -81.3372 88° East 525 604 39,000 -180 Level Indianapolis Center
04:39PM 40.0122 -81.1450 89° East 526 605 38,700 -540 Descending Indianapolis Center
04:39PM 40.0161 -81.0656 86° East 516 594 38,300 -960 Descending Cleveland Center
04:40PM 40.0189 -80.8758 89° East 521 600 37,400 -660 Descending Cleveland Center
04:41PM 39.9753 -80.7186 110° East 471 542 37,000 -240 Descending Cleveland Center
04:42PM 39.9067 -80.5803 123° Southeast 451 519 37,000 -480 Level Cleveland Center
04:43PM 39.8419 -80.4397 121° Southeast 451 519 36,100 -900 Descending Cleveland Center
04:45PM 39.7269 -80.2122 123° Southeast 456 525 34,500 -960 Descending Indianapolis Center
04:46PM 39.6542 -80.0525 121° Southeast 455 524 33,500 -1,080 Descending Washington Center
04:47PM 39.5861 -79.9161 123° Southeast 455 524 32,300 -1,740 Descending Washington Center
04:48PM 39.5394 -79.7628 111° Southeast 449 517 30,100 -2,220 Descending Washington Center
04:49PM 39.5136 -79.6025 102° East 449 517 27,900 -1,560 Descending Washington Center
04:50PM 39.4833 -79.4422 104° East 449 517 27,000 -960 Descending Washington Center
04:51PM 39.4550 -79.2819 103° East 455 524 26,000 -1,740 Descending Washington Center
04:52PM 39.4244 -79.1244 104° East 455 524 23,600 -2,340 Descending Washington Center
04:53PM 39.3975 -78.9703 103° East 445 512 21,400 -2,220 Descending Washington Center
04:54PM 39.3703 -78.8214 103° East 433 498 19,200 -2,280 Descending Washington Center
04:55PM 39.3431 -78.6669 103° East 421 484 16,900 -2,220 Descending Washington Center
04:56PM 39.3175 -78.5264 103° East 408 470 14,800 -2,160 Descending Washington Center
04:57PM 39.2917 -78.3886 104° East 402 463 12,600 -1,800 Descending Washington Center
04:58PM 39.2419 -78.2769 120° Southeast 377 434 11,300 -1,320 Descending Washington Center
04:59PM 39.2025 -78.1708 116° Southeast 354 407 10,000 -1,500 Descending Washington Center
05:00PM 39.2261 -78.0486 76° East 325 374 8,300 -1,500 Descending Washington Center
05:01PM 39.2431 -77.9283 80° East 325 374 7,000 -1,260 Descending Washington Center
05:02PM 39.2494 -77.8133 86° East 325 374 5,800 -1,020 Descending Washington Center
05:03PM 39.2450 -77.7089 93° East 317 365 5,000 -900 Descending Washington Center
05:04PM 39.2217 -77.6144 108° East 290 334 4,000 -660 Descending Washington Center
05:05PM 39.2000 -77.5667 120° Southeast 266 306 4,000 -180 Level Potomac TRACON
05:06PM 39.1833 -77.4833 104° East 236 272 3,800 -480 Descending Potomac TRACON
05:07PM 39.1333 -77.4500 153° Southeast 189 217 3,100 -660 Descending Potomac TRACON
05:08PM 39.0833 -77.4500 180° South 172 198 2,500 -780 Descending Potomac TRACON
05:09PM 39.0500 -77.4667 201° Southwest 154 177 1,700 -780 Descending Potomac TRACON
05:10PM 39.0167 -77.4667 180° South 126 145 1,100 -600 Descending Potomac TRACON
05:12PM 38.9474 -77.4599 165° South  Level Estimated
05:19PM 38.9474 -77.4599 165° South  Level Estimated
05:20PM 38.9474 -77.4599 165° South  Level Estimated